Aérodrome :
LOGIN :

S'inscrire | Disclaimer

   EN    FR    IT 

 










Légende :    VFR   VFR Marginal   IFR   IFR Intensif   IFR Très Intensif
Visi : 
Plafond : 
>= 8 km
>= 3000ft
5 à 8 km
1000 à 3000 ft
1500m à 5 km
500 à 1000 ft
800 à 1500m
200 à 500 ft
< 800m
< 200 ft
Symboles :   Orages  Brouillard  Fortes neiges  Fortes précipitations  Vent > 20 kt
SIGMETs :   Divers  Orages  Givrage  Turbulence  Onde Orograph.  Cendres Volcan.







- Altitude de l'aérodrome : 779 ft
- Code IATA : CMF
- Voir les cartes d'approche


LFLB - Chambery / Aix-Les-Bains

DERNIER METAR :
  • 202030Z AUTO 27004KT 200V010 6000 -RA FEW009 SCT026 BKN031 04/03 Q1009 TEMPO 3000 -RA SCT008 BKN014

METARs EXPIRÉS :
  • 202000Z AUTO 23004KT 150V280 6000 RA FEW007 SCT022 BKN033 03/03 Q1009 TEMPO 3000 -RA SCT008 BKN014
  • 201930Z AUTO 26005KT 220V320 7000 -RA FEW007 SCT026 BKN035 03/03 Q1010 TEMPO 3000 -RA SCT008 BKN014
  • 201900Z AUTO 23005KT 120V290 7000 -RA FEW007 SCT023 BKN035 03/02 Q1010 TEMPO 3000 -RA SCT008 BKN014
  • 201830Z AUTO 22008KT 180V270 7000 -RA FEW007 BKN026 BKN036 03/02 Q1010 TEMPO 3000 -RA SCT008 BKN014
  • 201800Z AUTO 21010KT 180V240 5000 -RA BR FEW007 SCT027 BKN037 03/02 Q1010 TEMPO SCT008 BKN014

TAF TAF LFLB
Valide du 20 à 18h jusqu'au 21 à 18h UTC


201700Z 2018/2118 19012KT 9999 FEW010 BKN020 BKN030
TEMPO 2018/2103 3000 -RA SCT008 BKN014
BECMG 2023/2101 36010KT
PROB40
TEMPO 2101/2104 36015G30KT
TEMPO 2103/2118 4000 -RA
BECMG 2106/2108 16006KT
Pas de NOTAMs connus pour ce terrain.
10 SIGMETs publiés pour la FIR Marseille (LFMM) :
 
Turbulence forte
LFMM SIGMET 22 VALID 202300/210300 LFPW
LFMM MARSEILLE FIR/UIR SEV TURB FCST WI N4630 E00545 - N4630 E00700 - N4400 E00700 - N4345 E00800 - N4300 E00615 - N4630 E00545 SFC/FL120 STNR NC=
Turbulence forte
LFMM SIGMET 21 VALID 202300/210300 LFPW
LFMM MARSEILLE FIR/UIR SEV TURB FCST WI N4200 E00430 - N4200 E00415 - N4215 E00230 - N4300 E00245 - N4345 E00800 - N4315 E00945 - N4145 E00945 - N4115 E00930 - N4115 E00815 - N4200 E00430 SFC/FL070 STNR INTSF=
Turbulence forte
LFMM SIGMET 20 VALID 202300/210300 LFPW
LFMM MARSEILLE FIR/UIR SEV TURB FCST NW OF LINE N4215 E00300 - N4630 E00445 SFC/FL100 STNR NC=
Onde orographique forte
LFMM SIGMET 19 VALID 202300/210300 LFPW
LFMM MARSEILLE FIR/UIR SEV MTW FCST E OF E00845 SFC/FL200 STNR NC=
Onde orographique forte
LFMM SIGMET 18 VALID 202300/210300 LFPW
LFMM MARSEILLE FIR/UIR SEV MTW FCST WI N4215 E00345 - N4215 E00230 - N4245 E00230 - N4230 E00345 - N4215 E00345 SFC/FL350 STNR NC=
Turbulence forte
LFMM SIGMET 16 VALID 202000/202300 LFPW
LFMM MARSEILLE FIR/UIR SEV TURB FCST WI N4545 E00700 - N4400 E00700 - N4345 E00800 - N4300 E00615 - N4545 E00600 - N4545 E00700 SFC/FL120 STNR NC=
Turbulence forte
LFMM SIGMET 15 VALID 201930/202300 LFPW
LFMM MARSEILLE FIR/UIR SEV TURB FCST WI N4200 E00430 - N4200 E00415 - N4215 E00230 - N4300 E00245 - N4345 E00800 - N4315 E00945 - N4145 E00945 - N4115 E00930 - N4115 E00815 - N4200 E00430 SFC/FL070 STNR INTSF=
Turbulence forte
LFMM SIGMET 14 VALID 202000/202300 LFPW
LFMM MARSEILLE FIR/UIR SEV TURB FCST NW OF LINE N4215 E00300 - N4630 E00445 SFC/FL100 STNR INTSF=
Onde orographique forte
LFMM SIGMET 13 VALID 202000/202300 LFPW
LFMM MARSEILLE FIR/UIR SEV MTW FCST WI N4215 E00345 - N4215 E00230 - N4245 E00230 - N4230 E00345 - N4215 E00345 SFC/FL350 STNR NC=
Onde orographique forte
LFMM SIGMET 12 VALID 202000/202300 LFPW
LFMM MARSEILLE FIR/UIR SEV MTW FCST E OF E00845 SFC/FL200 STNR NC=



MET'MAP, la Météo Aéronautique d'un coup d'oeil ! - Copyright ORBIFLY Décembre 2007 - Disclaimer

ORBIFLY MET'MAP TEAM :

Programmation & Développement : Alexandra Zaïnal
Conception & Développement : Baudouin d'Aumeries
Co-Programmation & Développement : Marc-Olivier Méhu
Soutien technique & logistique : Manuel Goepfert

Contact : metmap@orbifly.com




SOURCES & CREDITS :

   NOAA